Time;durP1;ratioP1;P1;durP2;ratioP2;P2;SDS_P1;SDS_P2;PMS_P1;PMS_P2;Temp;Humidity;BMP_temperature;BMP_pressure;BME280_temperature;BME280_humidity;BME280_pressure;Samples;Min_cycle;Max_cycle;Signal;HPM_P1;HPM_P2
2022/07/02 00:01:16;;;;;;;1.97;1.80;;;16.70;99.90;;;;;;7372778;19;20385;-84
2022/07/02 00:03:52;;;;;;;2.90;1.70;;;16.50;99.90;;;;;;7377024;19;20480;-82
2022/07/02 00:06:31;;;;;;;5.67;1.50;;;16.50;99.90;;;;;;7373525;19;20455;-83
2022/07/02 00:09:03;;;;;;;3.10;1.20;;;16.30;99.90;;;;;;7374830;19;21061;-83
2022/07/02 00:11:35;;;;;;;6.00;2.17;;;16.20;99.90;;;;;;7375372;19;20384;-84
2022/07/02 00:14:08;;;;;;;1.60;1.50;;;16.20;99.90;;;;;;7369530;19;21076;-82
2022/07/02 00:16:41;;;;;;;1.60;1.50;;;16.20;99.90;;;;;;7374447;19;20424;-85
2022/07/02 00:19:10;;;;;;;1.43;1.30;;;16.20;99.90;;;;;;7378619;19;20432;-84
2022/07/02 00:21:40;;;;;;;1.40;1.30;;;16.10;99.90;;;;;;7373988;19;20404;-83
2022/07/02 00:24:10;;;;;;;1.40;1.30;;;16.10;99.90;;;;;;7373907;19;20870;-82
2022/07/02 00:26:41;;;;;;;2.30;1.60;;;16.10;99.90;;;;;;7371823;19;20412;-83
2022/07/02 00:29:19;;;;;;;1.33;1.23;;;16.00;99.90;;;;;;7374510;19;20414;-83
2022/07/02 00:31:51;;;;;;;1.43;1.33;;;16.00;99.90;;;;;;7367298;19;20487;-83
2022/07/02 00:34:21;;;;;;;2.33;1.90;;;16.10;99.90;;;;;;7374711;19;20379;-83
2022/07/02 00:36:51;;;;;;;1.67;1.57;;;16.10;99.90;;;;;;7372975;19;20755;-83
2022/07/02 00:39:21;;;;;;;1.80;1.70;;;16.00;99.90;;;;;;7371051;19;20408;-83
2022/07/02 00:41:51;;;;;;;4.87;1.50;;;15.60;99.90;;;;;;7375388;19;20421;-83
2022/07/02 00:44:24;;;;;;;2.40;1.40;;;15.50;99.90;;;;;;7377570;19;20400;-82
2022/07/02 00:46:56;;;;;;;2.47;1.30;;;15.60;99.90;;;;;;7368601;19;20419;-83
2022/07/02 00:49:26;;;;;;;1.43;1.33;;;15.80;99.90;;;;;;7373470;19;20408;-83
2022/07/02 00:51:55;;;;;;;3.20;1.47;;;15.70;99.90;;;;;;7372821;19;20405;-83
2022/07/02 00:54:24;;;;;;;1.83;1.47;;;15.70;99.90;;;;;;7370648;19;20500;-83
2022/07/02 00:56:55;;;;;;;1.50;1.20;;;15.90;99.90;;;;;;7371164;19;20423;-83
2022/07/02 00:59:28;;;;;;;1.40;1.30;;;15.80;99.90;;;;;;7370527;19;20400;-81
2022/07/02 01:02:00;;;;;;;1.90;1.80;;;15.80;99.90;;;;;;7367669;19;20420;-83
2022/07/02 01:04:32;;;;;;;1.40;1.30;;;15.60;99.90;;;;;;7373381;19;21179;-83
2022/07/02 01:07:04;;;;;;;2.17;1.20;;;15.70;99.90;;;;;;7373117;19;20606;-83
2022/07/02 01:12:25;;;;;;;2.10;1.40;;;16.00;99.90;;;;;;7372715;19;21306;-82
2022/07/02 01:15:00;;;;;;;8.03;1.90;;;16.00;99.90;;;;;;7379165;19;20423;-84
2022/07/02 01:17:29;;;;;;;1.23;1.10;;;15.90;99.90;;;;;;7379706;19;20470;-83
2022/07/02 01:19:59;;;;;;;1.27;1.07;;;15.90;99.90;;;;;;7373218;19;20428;-83
2022/07/02 01:22:35;;;;;;;2.70;1.30;;;15.70;99.90;;;;;;7376323;19;20404;-82
2022/07/02 01:25:05;;;;;;;2.60;1.50;;;15.80;99.90;;;;;;7375096;19;20930;-83
2022/07/02 01:27:37;;;;;;;1.43;1.20;;;15.80;99.90;;;;;;7378715;19;21021;-82
2022/07/02 01:30:08;;;;;;;1.30;0.97;;;15.80;99.90;;;;;;7376506;19;21046;-82
2022/07/02 01:32:40;;;;;;;1.30;1.20;;;15.90;99.90;;;;;;7377772;19;20410;-81
2022/07/02 01:35:11;;;;;;;1.43;1.33;;;15.90;99.90;;;;;;7380228;19;20416;-83
2022/07/02 01:37:43;;;;;;;1.10;1.00;;;16.00;99.90;;;;;;7377151;19;21362;-83
2022/07/02 01:40:13;;;;;;;1.40;1.27;;;16.00;99.90;;;;;;7380274;19;20419;-82
2022/07/02 01:42:42;;;;;;;1.77;1.30;;;15.90;99.90;;;;;;7379372;19;20416;-83
2022/07/02 01:45:12;;;;;;;1.30;1.10;;;16.00;99.90;;;;;;7379227;19;20404;-84
2022/07/02 01:47:42;;;;;;;9.63;2.10;;;15.90;99.90;;;;;;7380366;19;20420;-85
2022/07/02 01:50:16;;;;;;;2.07;1.10;;;15.90;99.90;;;;;;7377986;19;20407;-83
2022/07/02 01:52:48;;;;;;;1.97;1.10;;;15.90;99.90;;;;;;7378210;19;20927;-83
2022/07/02 01:55:17;;;;;;;1.57;1.03;;;15.80;99.90;;;;;;7416076;19;20730;-83
2022/07/02 01:57:48;;;;;;;1.30;1.10;;;15.70;99.90;;;;;;7406370;19;20448;-85
2022/07/02 02:00:20;;;;;;;1.23;1.10;;;15.60;99.90;;;;;;7414789;19;20396;-85
2022/07/02 02:02:50;;;;;;;1.83;1.30;;;15.60;99.90;;;;;;7420370;19;20419;-84
2022/07/02 02:05:20;;;;;;;2.27;1.30;;;15.60;99.90;;;;;;7418527;19;20412;-85
2022/07/02 02:07:52;;;;;;;2.30;1.30;;;15.60;99.90;;;;;;7420253;19;20436;-84
2022/07/02 02:10:24;;;;;;;1.30;1.20;;;15.60;99.90;;;;;;7427668;19;20416;-84
2022/07/02 02:12:53;;;;;;;1.47;1.30;;;15.80;99.90;;;;;;7430214;19;20407;-83
2022/07/02 02:15:23;;;;;;;2.10;1.23;;;15.70;99.90;;;;;;7430455;19;20424;-83
2022/07/02 02:17:52;;;;;;;1.53;1.10;;;15.70;99.90;;;;;;7430755;19;20407;-82
2022/07/02 02:20:22;;;;;;;2.87;1.37;;;15.70;99.90;;;;;;7428539;19;20436;-83
2022/07/02 02:22:54;;;;;;;1.50;1.20;;;15.60;99.90;;;;;;7427625;19;20404;-84
2022/07/02 02:25:28;;;;;;;1.27;1.17;;;15.50;99.90;;;;;;7403237;19;20406;-84
2022/07/02 02:28:00;;;;;;;1.30;1.20;;;15.50;99.90;;;;;;7399035;19;20409;-84
2022/07/02 02:30:29;;;;;;;1.37;1.27;;;15.50;99.90;;;;;;7395409;19;21083;-83
2022/07/02 02:33:01;;;;;;;2.20;1.47;;;15.50;99.90;;;;;;7390840;19;20380;-83
2022/07/02 02:35:31;;;;;;;1.90;1.53;;;15.40;99.90;;;;;;7389253;19;20944;-83
2022/07/02 02:38:05;;;;;;;2.73;1.60;;;15.50;99.90;;;;;;7387517;19;20781;-83
2022/07/02 02:40:35;;;;;;;1.33;1.23;;;15.60;99.90;;;;;;7387301;19;20427;-83
2022/07/02 02:43:06;;;;;;;2.50;1.37;;;15.80;99.90;;;;;;7387084;19;20949;-82
2022/07/02 02:45:36;;;;;;;1.60;1.30;;;15.70;99.90;;;;;;7386976;19;20435;-83
2022/07/02 02:48:06;;;;;;;1.40;1.30;;;15.80;99.90;;;;;;7386704;19;20602;-83
2022/07/02 02:50:36;;;;;;;1.73;1.30;;;15.60;99.90;;;;;;7387894;19;20974;-84
2022/07/02 02:53:08;;;;;;;1.53;1.40;;;15.70;99.90;;;;;;7386110;19;20408;-84
2022/07/02 02:55:42;;;;;;;1.67;1.40;;;15.70;99.90;;;;;;7388771;19;20412;-84
2022/07/02 02:58:12;;;;;;;1.53;1.10;;;15.50;99.90;;;;;;7384048;19;21473;-82
2022/07/02 03:00:44;;;;;;;1.70;1.20;;;15.40;99.90;;;;;;7388030;19;20391;-87
2022/07/02 03:03:16;;;;;;;2.60;1.90;;;15.40;99.90;;;;;;7394498;19;20375;-87
2022/07/02 03:05:47;;;;;;;1.37;1.27;;;15.40;99.90;;;;;;7394000;19;20421;-87
2022/07/02 03:08:19;;;;;;;2.40;2.20;;;15.30;99.90;;;;;;7394958;19;20501;-90
2022/07/02 03:10:51;;;;;;;1.80;1.67;;;15.20;99.90;;;;;;7396417;19;20407;-90
2022/07/02 03:13:21;;;;;;;1.73;1.63;;;15.30;99.90;;;;;;7394179;19;20400;-88
2022/07/02 03:15:50;;;;;;;1.40;1.30;;;15.30;99.90;;;;;;7392272;19;20795;-88
2022/07/02 03:18:20;;;;;;;1.43;1.33;;;15.40;99.90;;;;;;7396824;19;20435;-89
2022/07/02 03:20:49;;;;;;;1.93;1.70;;;15.60;99.90;;;;;;7393835;19;20919;-87
2022/07/02 03:23:23;;;;;;;2.60;2.03;;;15.70;99.90;;;;;;7381875;19;20415;-87
2022/07/02 03:25:53;;;;;;;2.30;2.10;;;15.70;99.90;;;;;;7387671;19;20408;-89
2022/07/02 03:28:22;;;;;;;1.83;1.73;;;15.80;99.90;;;;;;7389443;19;20413;-89
2022/07/02 03:30:55;;;;;;;1.67;1.57;;;15.80;99.90;;;;;;7376294;19;20412;-82
2022/07/02 03:33:27;;;;;;;3.10;1.50;;;15.80;99.90;;;;;;7367965;19;21181;-84
2022/07/02 03:35:56;;;;;;;2.90;1.60;;;15.80;99.90;;;;;;7374266;19;20400;-81
2022/07/02 03:38:28;;;;;;;2.90;1.60;;;15.60;99.90;;;;;;7373093;19;20412;-82
2022/07/02 03:41:01;;;;;;;2.63;1.60;;;15.50;99.90;;;;;;7371705;19;20427;-84
2022/07/02 03:43:30;;;;;;;3.03;1.50;;;15.40;99.90;;;;;;7373194;19;20423;-84
2022/07/02 03:46:00;;;;;;;2.20;1.60;;;15.20;99.90;;;;;;7368567;19;20417;-84
2022/07/02 03:48:30;;;;;;;2.73;2.50;;;15.30;99.90;;;;;;7375650;19;20416;-82
2022/07/02 03:50:59;;;;;;;2.20;2.00;;;15.30;99.90;;;;;;7372965;19;20400;-82
2022/07/02 03:53:31;;;;;;;2.70;1.20;;;15.30;99.90;;;;;;7367529;19;20419;-83
2022/07/02 03:56:00;;;;;;;3.00;1.97;;;15.40;99.90;;;;;;7372943;19;21429;-83
2022/07/02 03:58:31;;;;;;;2.10;1.80;;;15.40;99.90;;;;;;7356176;19;20412;-83
2022/07/02 04:01:00;;;;;;;3.00;1.67;;;15.40;99.90;;;;;;7367213;19;20451;-83
2022/07/02 04:03:29;;;;;;;2.90;1.43;;;15.40;99.90;;;;;;7371145;19;20403;-83
2022/07/02 04:05:59;;;;;;;1.53;1.43;;;15.40;99.90;;;;;;7371986;19;20432;-82
2022/07/02 04:08:31;;;;;;;1.70;1.60;;;15.40;99.90;;;;;;7371364;19;20472;-82
2022/07/02 04:11:01;;;;;;;2.03;1.83;;;15.30;99.90;;;;;;7369560;19;20404;-81
2022/07/02 04:13:32;;;;;;;2.10;1.90;;;15.20;99.90;;;;;;7371325;19;20384;-82
2022/07/02 04:16:04;;;;;;;1.87;1.70;;;15.10;99.90;;;;;;7357133;19;20417;-83
2022/07/02 04:18:34;;;;;;;2.23;2.03;;;15.20;99.90;;;;;;7371966;19;20383;-83
2022/07/02 04:21:03;;;;;;;4.83;1.77;;;15.10;99.90;;;;;;7381558;19;20414;-84
2022/07/02 04:23:35;;;;;;;2.33;2.13;;;15.20;99.90;;;;;;7368310;19;20415;-82
2022/07/02 04:26:04;;;;;;;2.00;1.90;;;15.30;99.90;;;;;;7357097;19;20400;-82
2022/07/02 04:28:34;;;;;;;1.90;1.80;;;15.10;99.90;;;;;;7373097;19;20392;-81
2022/07/02 04:31:03;;;;;;;3.20;2.33;;;15.20;99.90;;;;;;7366523;19;20408;-83
2022/07/02 04:33:33;;;;;;;3.97;1.80;;;15.20;99.90;;;;;;7364798;19;20416;-83
2022/07/02 04:36:02;;;;;;;2.80;2.10;;;15.40;99.90;;;;;;7365861;19;20416;-83
2022/07/02 04:38:34;;;;;;;5.57;2.50;;;15.40;99.90;;;;;;7368694;19;20405;-83
2022/07/02 04:41:04;;;;;;;2.77;2.53;;;15.60;99.90;;;;;;7368985;19;20852;-82
2022/07/02 04:43:33;;;;;;;3.70;2.67;;;15.70;99.90;;;;;;7367189;19;20936;-83
2022/07/02 04:46:03;;;;;;;3.30;2.87;;;15.80;99.90;;;;;;7365736;19;20412;-83
2022/07/02 04:48:32;;;;;;;7.30;2.87;;;15.90;99.90;;;;;;7382912;19;20400;-83
2022/07/02 04:51:02;;;;;;;2.63;2.00;;;15.80;99.90;;;;;;7382027;19;20759;-82
2022/07/02 04:53:31;;;;;;;3.30;2.27;;;15.80;99.90;;;;;;7379810;19;20948;-81
2022/07/02 04:56:03;;;;;;;4.27;2.50;;;15.40;99.90;;;;;;7375803;19;20407;-81
2022/07/02 04:58:35;;;;;;;2.90;2.60;;;15.30;99.90;;;;;;7374395;19;21368;-83
2022/07/02 05:01:04;;;;;;;5.00;3.03;;;15.10;99.90;;;;;;7391716;19;20736;-82
2022/07/02 05:03:34;;;;;;;3.17;2.30;;;15.20;99.90;;;;;;7396409;19;20412;-80
2022/07/02 05:06:03;;;;;;;4.00;3.27;;;15.30;99.90;;;;;;7396363;19;20419;-83
2022/07/02 05:08:33;;;;;;;4.77;2.80;;;15.30;99.90;;;;;;7391414;19;20516;-81
2022/07/02 05:11:06;;;;;;;3.70;2.70;;;15.30;99.90;;;;;;7394040;19;20988;-80
2022/07/02 05:13:35;;;;;;;4.30;3.13;;;15.30;99.90;;;;;;7391996;19;20403;-80
2022/07/02 05:16:05;;;;;;;4.27;3.37;;;15.50;99.90;;;;;;7397308;19;20450;-82
2022/07/02 05:18:34;;;;;;;5.63;3.33;;;15.50;99.90;;;;;;7426828;19;20447;-84
2022/07/02 05:21:04;;;;;;;6.80;3.07;;;15.80;99.90;;;;;;7429594;19;20416;-85
2022/07/02 05:23:33;;;;;;;3.17;2.87;;;15.80;99.90;;;;;;7426893;19;20397;-84
2022/07/02 05:26:05;;;;;;;3.63;2.70;;;15.80;99.90;;;;;;7421076;19;20408;-83
2022/07/02 05:28:35;;;;;;;3.20;2.90;;;16.00;99.90;;;;;;7423003;19;20509;-83
2022/07/02 05:31:05;;;;;;;3.50;2.87;;;16.00;99.90;;;;;;7422811;19;21133;-83
2022/07/02 05:33:37;;;;;;;3.53;2.90;;;16.10;99.90;;;;;;7421976;19;20411;-84
2022/07/02 05:36:07;;;;;;;2.70;2.43;;;16.20;99.90;;;;;;7425312;19;20412;-83
2022/07/02 05:38:38;;;;;;;3.83;2.73;;;16.30;99.90;;;;;;7419362;19;20404;-82
2022/07/02 05:41:10;;;;;;;3.80;2.37;;;16.50;99.90;;;;;;7417611;19;20400;-81
2022/07/02 05:43:39;;;;;;;2.77;2.40;;;16.50;99.90;;;;;;7419195;19;20404;-86
2022/07/02 05:46:09;;;;;;;3.20;2.53;;;16.60;99.90;;;;;;7432994;19;20423;-87
2022/07/02 05:48:38;;;;;;;2.23;1.70;;;16.70;99.90;;;;;;7430452;19;20460;-86
2022/07/02 05:51:08;;;;;;;4.47;2.70;;;16.80;99.90;;;;;;7433251;19;20424;-87
2022/07/02 05:53:39;;;;;;;2.17;1.70;;;16.90;99.90;;;;;;7435717;19;20456;-87
2022/07/02 05:56:14;;;;;;;1.70;1.57;;;16.90;99.90;;;;;;7438584;19;20401;-87
2022/07/02 05:58:46;;;;;;;1.93;1.80;;;16.90;99.90;;;;;;7425586;19;20408;-88
2022/07/02 06:01:15;;;;;;;4.00;2.10;;;17.10;99.90;;;;;;7432257;19;20445;-86
2022/07/02 06:03:49;;;;;;;5.47;2.33;;;17.20;99.90;;;;;;7431927;19;20420;-86
2022/07/02 06:09:13;;;;;;;1.97;1.63;;;17.40;99.90;;;;;;7394975;19;20416;-88
2022/07/02 06:11:47;;;;;;;1.87;1.60;;;17.50;99.90;;;;;;7384385;19;20428;-84
2022/07/02 06:14:17;;;;;;;2.17;1.90;;;17.40;99.90;;;;;;7377755;19;20404;-81
2022/07/02 06:16:46;;;;;;;1.50;1.40;;;17.40;99.90;;;;;;7370500;19;20412;-81
2022/07/02 06:19:16;;;;;;;3.20;1.20;;;17.50;99.90;;;;;;7377921;19;20432;-81
2022/07/02 06:21:48;;;;;;;4.17;1.17;;;17.60;99.90;;;;;;7371904;19;20408;-80
2022/07/02 06:24:17;;;;;;;3.40;1.40;;;17.80;99.90;;;;;;7370920;19;20967;-81
2022/07/02 06:26:49;;;;;;;2.10;1.40;;;17.90;99.90;;;;;;7375129;19;20518;-81
2022/07/02 06:29:21;;;;;;;2.20;1.20;;;17.90;99.90;;;;;;7372797;19;20857;-82
2022/07/02 06:31:55;;;;;;;2.63;1.33;;;17.80;99.90;;;;;;7372193;19;20439;-83
2022/07/02 06:34:24;;;;;;;1.00;0.90;;;17.90;99.90;;;;;;7372498;19;20404;-82
2022/07/02 06:36:54;;;;;;;1.13;1.03;;;18.20;99.90;;;;;;7373907;19;20403;-80
2022/07/02 06:39:28;;;;;;;1.40;1.20;;;18.20;99.90;;;;;;7363643;19;20440;-82
2022/07/02 06:44:46;;;;;;;3.37;1.00;;;18.30;99.90;;;;;;7377023;19;20404;-89
2022/07/02 06:47:19;;;;;;;2.00;1.63;;;18.60;99.90;;;;;;7356256;19;21368;-79
2022/07/02 06:49:52;;;;;;;1.53;1.00;;;18.90;99.90;;;;;;7361157;19;20400;-79
2022/07/02 06:52:21;;;;;;;2.60;0.93;;;19.10;99.90;;;;;;7371786;19;21165;-79
2022/07/02 06:54:51;;;;;;;2.80;1.00;;;19.20;99.90;;;;;;7374875;19;20417;-79
2022/07/02 06:57:23;;;;;;;0.97;0.83;;;19.30;99.90;;;;;;7372838;19;20416;-79
2022/07/02 06:59:52;;;;;;;1.67;0.90;;;19.30;99.90;;;;;;7372922;19;20481;-79
2022/07/02 07:02:24;;;;;;;2.10;1.00;;;19.50;99.90;;;;;;7375153;19;20417;-79
2022/07/02 07:04:54;;;;;;;1.63;0.90;;;19.50;98.80;;;;;;7374912;19;20415;-79
2022/07/02 07:07:27;;;;;;;1.07;0.80;;;19.60;98.30;;;;;;7375019;19;20409;-78
2022/07/02 07:09:56;;;;;;;1.10;1.00;;;19.80;97.40;;;;;;7376038;19;21047;-79
2022/07/02 07:12:31;;;;;;;3.43;1.40;;;20.00;96.10;;;;;;7378899;19;20495;-78
2022/07/02 07:15:04;;;;;;;1.23;1.00;;;20.10;95.70;;;;;;7377107;19;20928;-78
2022/07/02 07:17:34;;;;;;;0.90;0.80;;;20.00;93.90;;;;;;7379887;19;20407;-79
2022/07/02 07:20:04;;;;;;;1.03;0.80;;;18.80;93.20;;;;;;7377351;19;20427;-78
2022/07/02 07:22:34;;;;;;;0.80;0.80;;;20.00;94.30;;;;;;7377167;19;21129;-78
2022/07/02 07:25:03;;;;;;;1.90;0.70;;;20.10;92.80;;;;;;7379542;19;20926;-79
2022/07/02 07:27:36;;;;;;;1.93;1.30;;;20.20;93.00;;;;;;7378344;19;20400;-79
2022/07/02 07:30:06;;;;;;;2.90;1.20;;;20.30;92.70;;;;;;7376480;19;20408;-79
2022/07/02 07:32:36;;;;;;;1.17;0.80;;;20.40;90.70;;;;;;7376234;19;20928;-80
2022/07/02 07:35:09;;;;;;;1.00;0.60;;;20.60;87.50;;;;;;7361262;19;20412;-80
2022/07/02 07:37:39;;;;;;;0.83;0.80;;;20.80;89.90;;;;;;7372826;19;20819;-79
2022/07/02 07:40:12;;;;;;;1.13;0.87;;;21.00;89.70;;;;;;7368956;19;20404;-80
2022/07/02 07:42:47;;;;;;;0.97;0.70;;;21.20;88.10;;;;;;7371992;19;20416;-84
2022/07/02 07:45:19;;;;;;;0.90;0.83;;;21.30;84.00;;;;;;7372950;19;20952;-82
2022/07/02 07:47:48;;;;;;;1.50;0.60;;;21.60;85.30;;;;;;7368196;19;21084;-79
2022/07/02 07:50:18;;;;;;;2.70;0.77;;;21.70;83.40;;;;;;7359580;19;20404;-82
2022/07/02 07:52:47;;;;;;;1.00;0.80;;;21.80;80.60;;;;;;7368969;19;20412;-86
2022/07/02 07:55:19;;;;;;;1.00;0.90;;;21.80;77.30;;;;;;7371526;19;21300;-82
2022/07/02 07:57:52;;;;;;;0.80;0.70;;;21.80;77.20;;;;;;7358943;19;20427;-82
2022/07/02 08:00:21;;;;;;;2.73;0.60;;;21.90;75.50;;;;;;7353768;19;20798;-81
2022/07/02 08:02:51;;;;;;;3.53;0.90;;;21.90;70.20;;;;;;7357667;19;20415;-82
2022/07/02 08:05:21;;;;;;;2.67;0.70;;;21.90;72.30;;;;;;7347574;19;20471;-82
2022/07/02 08:07:53;;;;;;;1.53;0.63;;;21.90;71.90;;;;;;7358879;19;20457;-78
2022/07/02 08:10:25;;;;;;;3.00;0.83;;;22.00;71.30;;;;;;7346863;19;20412;-80
2022/07/02 08:12:59;;;;;;;0.73;0.60;;;22.10;70.00;;;;;;7355082;19;20408;-82
2022/07/02 08:15:29;;;;;;;0.90;0.53;;;22.20;71.80;;;;;;7343195;19;21211;-83
2022/07/02 08:17:59;;;;;;;1.03;0.90;;;22.40;70.20;;;;;;7350296;19;20423;-86
2022/07/02 08:20:28;;;;;;;1.33;0.50;;;22.70;66.60;;;;;;7358127;19;20529;-92
2022/07/02 08:22:59;;;;;;;1.10;0.90;;;22.90;65.90;;;;;;7363873;19;20446;-83
2022/07/02 08:25:30;;;;;;;0.97;0.87;;;23.10;64.40;;;;;;7372356;19;20836;-83
2022/07/02 08:28:03;;;;;;;0.63;0.40;;;23.20;63.20;;;;;;7368501;19;20932;-83
2022/07/02 08:30:33;;;;;;;0.60;0.60;;;23.40;62.60;;;;;;7372479;19;20400;-84
2022/07/02 08:33:03;;;;;;;0.93;0.50;;;23.40;59.80;;;;;;7369013;19;20412;-82
2022/07/02 08:35:32;;;;;;;0.80;0.57;;;23.40;60.00;;;;;;7376396;19;20404;-81
2022/07/02 08:38:02;;;;;;;3.43;0.90;;;23.40;59.50;;;;;;7373851;19;20442;-81
2022/07/02 08:40:33;;;;;;;1.00;0.70;;;23.30;60.20;;;;;;7373845;19;21178;-84
2022/07/02 08:43:07;;;;;;;1.00;0.50;;;23.40;60.10;;;;;;7372249;19;20409;-83
2022/07/02 08:45:38;;;;;;;0.80;0.70;;;23.70;57.30;;;;;;7372501;19;20401;-83
2022/07/02 08:48:09;;;;;;;0.73;0.57;;;23.60;58.50;;;;;;7368432;19;20512;-85
2022/07/02 08:50:39;;;;;;;1.10;0.53;;;23.70;59.70;;;;;;7371905;19;20400;-82
2022/07/02 08:53:09;;;;;;;1.87;0.70;;;24.00;60.10;;;;;;7367498;19;20873;-82
2022/07/02 08:55:41;;;;;;;1.20;0.60;;;24.30;79.70;;;;;;7365312;19;20432;-84
2022/07/02 08:58:17;;;;;;;0.73;0.60;;;24.60;74.70;;;;;;7343923;19;20412;-81
2022/07/02 09:00:50;;;;;;;1.37;0.57;;;24.70;70.80;;;;;;7371050;19;20438;-82
2022/07/02 09:03:22;;;;;;;2.30;0.70;;;24.60;71.80;;;;;;7372018;19;20412;-83
2022/07/02 09:05:53;;;;;;;1.00;0.70;;;24.70;83.80;;;;;;7367714;19;20417;-82
2022/07/02 09:08:26;;;;;;;1.23;0.47;;;25.10;56.50;;;;;;7370648;19;20552;-82
2022/07/02 09:10:56;;;;;;;1.80;0.60;;;25.60;51.60;;;;;;7365658;19;20925;-82
2022/07/02 09:13:30;;;;;;;4.20;0.73;;;25.90;49.80;;;;;;7368383;19;20456;-82
2022/07/02 09:15:59;;;;;;;0.73;0.60;;;25.90;50.10;;;;;;7372671;19;20420;-83
2022/07/02 09:18:29;;;;;;;1.40;0.57;;;26.00;49.40;;;;;;7372728;19;20410;-85
2022/07/02 09:20:58;;;;;;;3.27;0.80;;;26.00;48.70;;;;;;7372496;19;21035;-82
2022/07/02 09:23:28;;;;;;;0.77;0.77;;;26.20;49.80;;;;;;7371040;19;20548;-82
2022/07/02 09:25:58;;;;;;;2.13;0.60;;;26.30;48.90;;;;;;7370231;19;21040;-82
2022/07/02 09:28:30;;;;;;;0.73;0.70;;;26.50;49.10;;;;;;7372116;19;21011;-83
2022/07/02 09:31:06;;;;;;;1.70;0.60;;;27.00;47.50;;;;;;7373213;19;21102;-83
2022/07/02 09:33:35;;;;;;;0.60;0.57;;;27.40;47.80;;;;;;7375940;19;21121;-83
2022/07/02 09:36:15;;;;;;;1.37;0.50;;;27.40;46.50;;;;;;7380595;19;20419;-84
2022/07/02 09:38:46;;;;;;;0.60;0.43;;;27.60;46.40;;;;;;7379520;19;20408;-84
2022/07/02 09:41:18;;;;;;;0.70;0.50;;;27.80;46.10;;;;;;7379073;19;20375;-84
2022/07/02 09:43:54;;;;;;;1.47;0.47;;;27.90;45.00;;;;;;7411213;19;20357;-84
2022/07/02 09:46:24;;;;;;;0.60;0.57;;;28.10;45.50;;;;;;7415683;19;20402;-84
2022/07/02 09:48:53;;;;;;;0.60;0.50;;;28.70;43.50;;;;;;7415309;19;20418;-83
2022/07/02 09:51:23;;;;;;;1.60;0.57;;;29.00;42.50;;;;;;7417680;19;20423;-84
2022/07/02 09:53:54;;;;;;;1.77;0.60;;;29.40;41.40;;;;;;7419836;19;20497;-84
2022/07/02 09:56:25;;;;;;;0.93;0.60;;;29.70;42.40;;;;;;7418075;19;20409;-84
2022/07/02 09:58:57;;;;;;;2.00;0.73;;;30.10;40.50;;;;;;7416016;19;20433;-83
2022/07/02 10:01:27;;;;;;;2.10;0.87;;;29.60;40.60;;;;;;7421320;19;20404;-83
2022/07/02 10:03:59;;;;;;;1.03;0.67;;;29.70;40.30;;;;;;7397542;19;20492;-82
2022/07/02 10:06:29;;;;;;;0.70;0.50;;;30.50;39.90;;;;;;7400650;19;20394;-84
2022/07/02 10:09:01;;;;;;;1.23;0.70;;;31.10;38.70;;;;;;7401195;19;20755;-83
2022/07/02 10:11:31;;;;;;;1.60;0.80;;;32.00;37.50;;;;;;7397840;19;20464;-82
2022/07/02 10:14:04;;;;;;;1.60;0.47;;;32.70;35.10;;;;;;7391952;19;20405;-83
2022/07/02 10:16:34;;;;;;;0.80;0.50;;;33.20;34.40;;;;;;7391987;19;20437;-84
2022/07/02 10:19:08;;;;;;;0.80;0.53;;;33.10;32.80;;;;;;7391200;19;20439;-83
2022/07/02 10:21:41;;;;;;;0.73;0.40;;;32.20;33.50;;;;;;7385862;19;20423;-83
2022/07/02 10:24:12;;;;;;;1.70;0.60;;;31.90;34.70;;;;;;7383650;19;20937;-83
2022/07/02 10:26:42;;;;;;;0.77;0.50;;;32.40;34.60;;;;;;7384137;19;20959;-83
2022/07/02 10:29:14;;;;;;;1.07;0.60;;;32.80;34.80;;;;;;7379488;19;21172;-84
2022/07/02 10:31:50;;;;;;;0.73;0.63;;;32.70;33.40;;;;;;7377615;19;20432;-85
2022/07/02 10:34:36;;;;;;;1.50;0.50;;;33.60;33.50;;;;;;7377600;19;20388;-84
2022/07/02 10:37:06;;;;;;;2.07;0.80;;;33.60;31.80;;;;;;7379032;19;20420;-83
2022/07/02 10:39:41;;;;;;;1.20;0.50;;;34.10;32.20;;;;;;7380126;19;21323;-84
2022/07/02 10:42:11;;;;;;;2.67;0.63;;;34.80;30.00;;;;;;7377841;19;20442;-83
2022/07/02 10:44:47;;;;;;;1.07;0.70;;;34.10;31.80;;;;;;7376364;19;20404;-83
2022/07/02 10:47:20;;;;;;;1.70;0.67;;;34.10;31.80;;;;;;7377667;19;20417;-83
2022/07/02 10:50:00;;;;;;;1.37;0.57;;;34.60;31.30;;;;;;7375441;19;20890;-84
2022/07/02 10:52:51;;;;;;;0.50;0.30;;;35.30;30.30;;;;;;7379288;19;20396;-84
2022/07/02 10:55:28;;;;;;;1.00;0.40;;;35.70;30.10;;;;;;7378636;19;20843;-84
2022/07/02 10:57:58;;;;;;;0.40;0.30;;;36.40;29.90;;;;;;7362181;19;20424;-82
2022/07/02 11:00:39;;;;;;;1.43;0.67;;;36.50;29.20;;;;;;7377878;19;20935;-84
2022/07/02 11:03:17;;;;;;;0.77;0.50;;;37.20;28.60;;;;;;7376615;19;20416;-86
2022/07/02 11:05:59;;;;;;;0.80;0.50;;;38.10;27.60;;;;;;7377561;19;21184;-83
2022/07/02 11:08:54;;;;;;;0.73;0.43;;;37.60;27.90;;;;;;7375573;19;20426;-83
2022/07/02 11:11:48;;;;;;;0.83;0.40;;;38.30;27.10;;;;;;7376179;19;20419;-82
2022/07/02 11:14:20;;;;;;;1.30;0.73;;;37.80;27.10;;;;;;7377340;19;20417;-83
2022/07/02 11:16:53;;;;;;;1.10;0.50;;;37.60;27.20;;;;;;7373375;19;20476;-83
2022/07/02 11:19:25;;;;;;;0.80;0.47;;;38.20;28.10;;;;;;7370683;19;20495;-83
2022/07/02 11:21:57;;;;;;;1.27;0.70;;;39.20;26.30;;;;;;7372178;19;20913;-83
2022/07/02 11:24:28;;;;;;;1.13;0.50;;;39.50;25.90;;;;;;7377091;19;20408;-83
2022/07/02 11:26:58;;;;;;;0.70;0.50;;;39.60;26.10;;;;;;7377079;19;20419;-84
2022/07/02 11:29:28;;;;;;;2.60;0.50;;;40.30;25.40;;;;;;7374501;19;20400;-84
2022/07/02 11:32:01;;;;;;;1.90;0.50;;;40.30;25.50;;;;;;7374565;19;20376;-83
2022/07/02 11:34:32;;;;;;;1.13;0.40;;;40.00;24.80;;;;;;7376697;19;20886;-84
2022/07/02 11:37:02;;;;;;;1.20;0.50;;;39.40;24.60;;;;;;7373548;19;20423;-83
2022/07/02 11:39:31;;;;;;;0.63;0.40;;;39.00;25.30;;;;;;7376762;19;20435;-83
2022/07/02 11:42:03;;;;;;;0.50;0.40;;;39.10;25.90;;;;;;7376006;19;20427;-83
2022/07/02 11:44:33;;;;;;;1.03;0.50;;;39.40;25.90;;;;;;7374805;19;21203;-85
2022/07/02 11:47:05;;;;;;;0.80;0.43;;;38.80;25.00;;;;;;7376034;19;20417;-83
2022/07/02 11:49:36;;;;;;;0.97;0.40;;;38.90;26.00;;;;;;7376190;19;20422;-85
2022/07/02 11:52:08;;;;;;;0.80;0.40;;;38.90;25.30;;;;;;7376806;19;20427;-83
2022/07/02 11:54:43;;;;;;;1.40;0.70;;;39.50;25.20;;;;;;7372699;19;20388;-84
2022/07/02 11:57:13;;;;;;;3.37;0.40;;;39.20;25.70;;;;;;7362202;19;20412;-83
2022/07/02 11:59:42;;;;;;;1.20;0.43;;;40.60;24.20;;;;;;7375447;19;20406;-83
2022/07/02 12:02:15;;;;;;;0.80;0.60;;;41.30;24.10;;;;;;7374805;19;21201;-82
2022/07/02 12:04:46;;;;;;;0.60;0.47;;;41.80;24.50;;;;;;7375099;19;21016;-83
2022/07/02 12:07:18;;;;;;;0.80;0.50;;;42.30;23.30;;;;;;7379114;19;20511;-82
2022/07/02 12:09:51;;;;;;;0.83;0.40;;;41.50;22.70;;;;;;7375203;19;20416;-84
2022/07/02 12:12:21;;;;;;;0.97;0.40;;;41.10;23.60;;;;;;7366854;19;20408;-82
2022/07/02 12:14:53;;;;;;;0.70;0.60;;;41.40;23.40;;;;;;7380108;19;20425;-84
2022/07/02 12:17:28;;;;;;;0.70;0.50;;;40.70;23.80;;;;;;7382974;19;20408;-83
2022/07/02 12:19:57;;;;;;;0.90;0.77;;;40.20;24.20;;;;;;7379895;19;20972;-83
2022/07/02 12:22:30;;;;;;;1.00;0.40;;;39.60;24.90;;;;;;7376008;19;20552;-83
2022/07/02 12:25:05;;;;;;;0.67;0.50;;;40.80;23.70;;;;;;7378165;19;20438;-83
2022/07/02 12:27:36;;;;;;;0.60;0.40;;;42.10;23.70;;;;;;7383323;19;20407;-82
2022/07/02 12:30:13;;;;;;;0.90;0.40;;;42.00;23.10;;;;;;7381774;19;20443;-83
2022/07/02 12:32:54;;;;;;;0.90;0.70;;;41.10;23.50;;;;;;7383114;19;20404;-84
2022/07/02 12:35:23;;;;;;;1.90;0.90;;;40.40;24.50;;;;;;7384155;19;20416;-84
2022/07/02 12:38:00;;;;;;;5.77;4.10;;;40.80;24.50;;;;;;7383501;19;20389;-86
2022/07/02 12:40:30;;;;;;;1.10;0.80;;;41.70;24.80;;;;;;7382678;19;20459;-84
2022/07/02 12:43:02;;;;;;;1.53;0.60;;;42.30;23.20;;;;;;7381244;19;20456;-83
2022/07/02 12:45:34;;;;;;;0.70;0.50;;;42.70;23.30;;;;;;7380683;19;21015;-86
2022/07/02 12:48:11;;;;;;;0.60;0.53;;;41.60;23.10;;;;;;7380545;19;21135;-83
2022/07/02 12:50:46;;;;;;;1.33;0.60;;;40.40;24.20;;;;;;7377373;19;20452;-83
2022/07/02 12:53:18;;;;;;;1.30;0.60;;;39.80;24.50;;;;;;7377309;19;20376;-84
2022/07/02 12:55:55;;;;;;;1.37;0.47;;;40.80;24.80;;;;;;7380738;19;20454;-84
2022/07/02 12:58:28;;;;;;;1.10;0.60;;;42.10;23.60;;;;;;7380599;19;20453;-84
2022/07/02 13:00:58;;;;;;;0.97;0.60;;;42.00;23.00;;;;;;7380592;19;20401;-83
2022/07/02 13:03:32;;;;;;;0.93;0.63;;;41.30;23.70;;;;;;7381393;19;20360;-84
2022/07/02 13:06:02;;;;;;;0.70;0.50;;;42.00;23.40;;;;;;7387896;19;20393;-83
2022/07/02 13:08:34;;;;;;;0.50;0.40;;;42.90;23.20;;;;;;7417654;19;20392;-81
2022/07/02 13:11:04;;;;;;;1.00;0.60;;;43.20;22.90;;;;;;7417973;19;20388;-83
2022/07/02 13:13:36;;;;;;;1.60;0.57;;;43.10;23.40;;;;;;7424042;19;20440;-82
2022/07/02 13:16:05;;;;;;;1.40;0.60;;;42.90;23.30;;;;;;7421698;19;20411;-83
2022/07/02 13:18:37;;;;;;;1.10;0.50;;;41.70;24.00;;;;;;7395010;19;21470;-83